sensor_id;sensor_type;location;lat;lon;timestamp;P1;durP1;ratioP1;P2;durP2;ratioP2
72899;SDS011;61043;52.036;5.566;2022-08-01T00:01:59;9.77;;;6.95;;
72899;SDS011;61043;52.036;5.566;2022-08-01T00:04:25;12.05;;;7.22;;
72899;SDS011;61043;52.036;5.566;2022-08-01T00:06:52;6.97;;;5.38;;
72899;SDS011;61043;52.036;5.566;2022-08-01T00:09:19;9.20;;;6.18;;
72899;SDS011;61043;52.036;5.566;2022-08-01T00:11:49;8.90;;;5.60;;
72899;SDS011;61043;52.036;5.566;2022-08-01T00:14:25;7.18;;;5.43;;
72899;SDS011;61043;52.036;5.566;2022-08-01T00:16:58;7.38;;;5.13;;
72899;SDS011;61043;52.036;5.566;2022-08-01T00:19:32;7.18;;;5.18;;
72899;SDS011;61043;52.036;5.566;2022-08-01T00:21:58;6.75;;;5.10;;
72899;SDS011;61043;52.036;5.566;2022-08-01T00:24:25;7.70;;;5.80;;
72899;SDS011;61043;52.036;5.566;2022-08-01T00:26:52;8.43;;;5.55;;
72899;SDS011;61043;52.036;5.566;2022-08-01T00:29:18;6.78;;;4.72;;
72899;SDS011;61043;52.036;5.566;2022-08-01T00:32:05;8.20;;;5.25;;
72899;SDS011;61043;52.036;5.566;2022-08-01T00:34:32;7.97;;;5.22;;
72899;SDS011;61043;52.036;5.566;2022-08-01T00:36:59;6.70;;;4.80;;
72899;SDS011;61043;52.036;5.566;2022-08-01T00:39:26;7.28;;;4.78;;
72899;SDS011;61043;52.036;5.566;2022-08-01T00:41:52;8.82;;;5.60;;
72899;SDS011;61043;52.036;5.566;2022-08-01T00:44:25;7.63;;;5.40;;
72899;SDS011;61043;52.036;5.566;2022-08-01T00:46:52;6.25;;;4.78;;
72899;SDS011;61043;52.036;5.566;2022-08-01T00:49:19;8.07;;;5.78;;
72899;SDS011;61043;52.036;5.566;2022-08-01T00:51:46;10.23;;;6.00;;
72899;SDS011;61043;52.036;5.566;2022-08-01T00:54:12;10.63;;;6.65;;
72899;SDS011;61043;52.036;5.566;2022-08-01T00:56:42;11.35;;;6.68;;
72899;SDS011;61043;52.036;5.566;2022-08-01T00:59:09;11.20;;;6.43;;
72899;SDS011;61043;52.036;5.566;2022-08-01T01:01:40;11.95;;;7.30;;
72899;SDS011;61043;52.036;5.566;2022-08-01T01:04:12;12.00;;;6.57;;
72899;SDS011;61043;52.036;5.566;2022-08-01T01:06:41;9.43;;;5.82;;
72899;SDS011;61043;52.036;5.566;2022-08-01T01:09:21;13.25;;;6.05;;
72899;SDS011;61043;52.036;5.566;2022-08-01T01:14:42;12.43;;;6.18;;
72899;SDS011;61043;52.036;5.566;2022-08-01T01:17:19;10.90;;;6.20;;
72899;SDS011;61043;52.036;5.566;2022-08-01T01:20:15;8.25;;;4.43;;
72899;SDS011;61043;52.036;5.566;2022-08-01T01:28:15;8.63;;;5.35;;
72899;SDS011;61043;52.036;5.566;2022-08-01T01:30:51;9.55;;;5.70;;
72899;SDS011;61043;52.036;5.566;2022-08-01T01:33:21;9.32;;;5.03;;
72899;SDS011;61043;52.036;5.566;2022-08-01T01:35:51;8.65;;;5.40;;
72899;SDS011;61043;52.036;5.566;2022-08-01T01:38:25;8.80;;;5.18;;
72899;SDS011;61043;52.036;5.566;2022-08-01T01:40:56;7.70;;;4.88;;
72899;SDS011;61043;52.036;5.566;2022-08-01T01:43:24;9.70;;;5.10;;
72899;SDS011;61043;52.036;5.566;2022-08-01T01:45:58;8.25;;;5.15;;
72899;SDS011;61043;52.036;5.566;2022-08-01T01:48:27;9.07;;;4.60;;
72899;SDS011;61043;52.036;5.566;2022-08-01T01:50:55;9.13;;;5.72;;
72899;SDS011;61043;52.036;5.566;2022-08-01T01:53:22;8.77;;;5.30;;
72899;SDS011;61043;52.036;5.566;2022-08-01T01:55:52;10.68;;;5.55;;
72899;SDS011;61043;52.036;5.566;2022-08-01T01:58:21;8.50;;;5.47;;
72899;SDS011;61043;52.036;5.566;2022-08-01T02:00:49;9.90;;;5.65;;
72899;SDS011;61043;52.036;5.566;2022-08-01T02:03:19;8.57;;;5.47;;
72899;SDS011;61043;52.036;5.566;2022-08-01T02:05:48;8.77;;;6.03;;
72899;SDS011;61043;52.036;5.566;2022-08-01T02:08:18;11.18;;;5.78;;
72899;SDS011;61043;52.036;5.566;2022-08-01T02:10:45;9.93;;;5.75;;
72899;SDS011;61043;52.036;5.566;2022-08-01T02:13:33;9.70;;;5.70;;
72899;SDS011;61043;52.036;5.566;2022-08-01T02:16:02;13.07;;;6.17;;
72899;SDS011;61043;52.036;5.566;2022-08-01T02:18:29;10.10;;;6.13;;
72899;SDS011;61043;52.036;5.566;2022-08-01T02:20:57;9.70;;;5.90;;
72899;SDS011;61043;52.036;5.566;2022-08-01T02:23:25;9.75;;;6.05;;
72899;SDS011;61043;52.036;5.566;2022-08-01T02:25:56;9.73;;;5.85;;
72899;SDS011;61043;52.036;5.566;2022-08-01T02:28:38;11.67;;;6.83;;
72899;SDS011;61043;52.036;5.566;2022-08-01T02:31:12;10.73;;;6.13;;
72899;SDS011;61043;52.036;5.566;2022-08-01T02:33:43;9.18;;;6.10;;
72899;SDS011;61043;52.036;5.566;2022-08-01T02:36:14;8.60;;;5.43;;
72899;SDS011;61043;52.036;5.566;2022-08-01T02:38:59;10.95;;;6.32;;
72899;SDS011;61043;52.036;5.566;2022-08-01T02:41:33;12.77;;;6.88;;
72899;SDS011;61043;52.036;5.566;2022-08-01T02:44:05;11.70;;;7.03;;
72899;SDS011;61043;52.036;5.566;2022-08-01T02:46:37;13.60;;;7.15;;
72899;SDS011;61043;52.036;5.566;2022-08-01T02:49:08;9.75;;;5.68;;
72899;SDS011;61043;52.036;5.566;2022-08-01T02:51:37;9.18;;;5.45;;
72899;SDS011;61043;52.036;5.566;2022-08-01T02:54:07;8.48;;;5.28;;
72899;SDS011;61043;52.036;5.566;2022-08-01T02:56:36;13.20;;;5.88;;
72899;SDS011;61043;52.036;5.566;2022-08-01T02:59:05;9.68;;;5.35;;
72899;SDS011;61043;52.036;5.566;2022-08-01T03:01:40;10.20;;;5.63;;
72899;SDS011;61043;52.036;5.566;2022-08-01T03:04:09;10.55;;;5.13;;
72899;SDS011;61043;52.036;5.566;2022-08-01T03:06:37;12.95;;;6.82;;
72899;SDS011;61043;52.036;5.566;2022-08-01T03:11:34;9.35;;;5.78;;
72899;SDS011;61043;52.036;5.566;2022-08-01T03:14:07;11.18;;;6.10;;
72899;SDS011;61043;52.036;5.566;2022-08-01T03:19:03;9.63;;;4.97;;
72899;SDS011;61043;52.036;5.566;2022-08-01T03:21:31;10.90;;;5.93;;
72899;SDS011;61043;52.036;5.566;2022-08-01T03:23:59;8.80;;;5.13;;
72899;SDS011;61043;52.036;5.566;2022-08-01T03:26:27;8.93;;;6.03;;
72899;SDS011;61043;52.036;5.566;2022-08-01T03:28:57;9.75;;;5.07;;
72899;SDS011;61043;52.036;5.566;2022-08-01T03:31:27;8.70;;;5.68;;
72899;SDS011;61043;52.036;5.566;2022-08-01T03:33:56;7.78;;;4.85;;
72899;SDS011;61043;52.036;5.566;2022-08-01T03:36:26;9.73;;;5.40;;
72899;SDS011;61043;52.036;5.566;2022-08-01T03:38:56;11.32;;;5.82;;
72899;SDS011;61043;52.036;5.566;2022-08-01T03:41:25;9.75;;;5.78;;
72899;SDS011;61043;52.036;5.566;2022-08-01T03:44:00;10.85;;;5.90;;
72899;SDS011;61043;52.036;5.566;2022-08-01T03:46:40;10.65;;;5.90;;
72899;SDS011;61043;52.036;5.566;2022-08-01T03:49:14;10.18;;;5.85;;
72899;SDS011;61043;52.036;5.566;2022-08-01T03:51:44;9.48;;;5.22;;
72899;SDS011;61043;52.036;5.566;2022-08-01T03:54:16;8.23;;;5.15;;
72899;SDS011;61043;52.036;5.566;2022-08-01T03:56:46;9.63;;;5.88;;
72899;SDS011;61043;52.036;5.566;2022-08-01T03:59:16;10.43;;;6.45;;
72899;SDS011;61043;52.036;5.566;2022-08-01T04:01:44;10.23;;;5.80;;
72899;SDS011;61043;52.036;5.566;2022-08-01T04:04:12;9.57;;;5.80;;
72899;SDS011;61043;52.036;5.566;2022-08-01T04:06:39;9.15;;;5.45;;
72899;SDS011;61043;52.036;5.566;2022-08-01T04:09:07;7.47;;;4.68;;
72899;SDS011;61043;52.036;5.566;2022-08-01T04:11:39;9.63;;;5.93;;
72899;SDS011;61043;52.036;5.566;2022-08-01T04:14:06;8.07;;;4.13;;
72899;SDS011;61043;52.036;5.566;2022-08-01T04:16:34;9.10;;;5.45;;
72899;SDS011;61043;52.036;5.566;2022-08-01T04:19:01;10.07;;;5.63;;
72899;SDS011;61043;52.036;5.566;2022-08-01T04:21:28;8.38;;;5.30;;
72899;SDS011;61043;52.036;5.566;2022-08-01T04:23:58;8.10;;;4.88;;
72899;SDS011;61043;52.036;5.566;2022-08-01T04:26:29;8.48;;;5.50;;
72899;SDS011;61043;52.036;5.566;2022-08-01T04:28:58;10.52;;;5.80;;
72899;SDS011;61043;52.036;5.566;2022-08-01T04:31:28;9.77;;;5.57;;
72899;SDS011;61043;52.036;5.566;2022-08-01T04:33:57;8.57;;;5.55;;
72899;SDS011;61043;52.036;5.566;2022-08-01T04:36:27;10.05;;;6.10;;
72899;SDS011;61043;52.036;5.566;2022-08-01T04:38:57;9.70;;;6.68;;
72899;SDS011;61043;52.036;5.566;2022-08-01T04:41:26;11.20;;;5.93;;
72899;SDS011;61043;52.036;5.566;2022-08-01T04:43:56;9.55;;;6.55;;
72899;SDS011;61043;52.036;5.566;2022-08-01T04:46:26;8.68;;;5.80;;
72899;SDS011;61043;52.036;5.566;2022-08-01T04:48:54;10.15;;;6.07;;
72899;SDS011;61043;52.036;5.566;2022-08-01T04:51:22;8.38;;;5.20;;
72899;SDS011;61043;52.036;5.566;2022-08-01T04:53:49;8.38;;;5.85;;
72899;SDS011;61043;52.036;5.566;2022-08-01T04:56:17;8.10;;;4.55;;
72899;SDS011;61043;52.036;5.566;2022-08-01T04:58:45;8.13;;;5.22;;
72899;SDS011;61043;52.036;5.566;2022-08-01T05:01:11;8.27;;;6.25;;
72899;SDS011;61043;52.036;5.566;2022-08-01T05:03:40;9.02;;;5.03;;
72899;SDS011;61043;52.036;5.566;2022-08-01T05:06:07;8.60;;;5.13;;
72899;SDS011;61043;52.036;5.566;2022-08-01T05:08:34;9.00;;;5.57;;
72899;SDS011;61043;52.036;5.566;2022-08-01T05:11:02;8.48;;;4.82;;
72899;SDS011;61043;52.036;5.566;2022-08-01T05:13:28;6.75;;;4.65;;
72899;SDS011;61043;52.036;5.566;2022-08-01T05:15:55;7.85;;;5.20;;
72899;SDS011;61043;52.036;5.566;2022-08-01T05:18:22;6.13;;;3.75;;
72899;SDS011;61043;52.036;5.566;2022-08-01T05:20:53;4.85;;;3.17;;
72899;SDS011;61043;52.036;5.566;2022-08-01T05:23:20;5.00;;;3.00;;
72899;SDS011;61043;52.036;5.566;2022-08-01T05:26:07;4.32;;;2.70;;
72899;SDS011;61043;52.036;5.566;2022-08-01T05:28:34;4.38;;;2.60;;
72899;SDS011;61043;52.036;5.566;2022-08-01T05:31:01;4.70;;;2.70;;
72899;SDS011;61043;52.036;5.566;2022-08-01T05:33:28;3.72;;;2.40;;
72899;SDS011;61043;52.036;5.566;2022-08-01T05:35:55;4.63;;;2.55;;
72899;SDS011;61043;52.036;5.566;2022-08-01T05:38:21;3.33;;;2.40;;
72899;SDS011;61043;52.036;5.566;2022-08-01T05:40:48;6.85;;;3.20;;
72899;SDS011;61043;52.036;5.566;2022-08-01T05:43:15;4.63;;;2.33;;
72899;SDS011;61043;52.036;5.566;2022-08-01T05:45:41;5.22;;;3.17;;
72899;SDS011;61043;52.036;5.566;2022-08-01T05:48:08;4.43;;;2.50;;
72899;SDS011;61043;52.036;5.566;2022-08-01T05:50:34;3.50;;;2.50;;
72899;SDS011;61043;52.036;5.566;2022-08-01T05:53:01;3.97;;;2.72;;
72899;SDS011;61043;52.036;5.566;2022-08-01T05:55:28;4.25;;;2.40;;
72899;SDS011;61043;52.036;5.566;2022-08-01T05:57:54;2.85;;;2.20;;
72899;SDS011;61043;52.036;5.566;2022-08-01T06:00:23;3.42;;;2.20;;
72899;SDS011;61043;52.036;5.566;2022-08-01T06:02:50;3.28;;;2.45;;
72899;SDS011;61043;52.036;5.566;2022-08-01T06:05:16;3.17;;;2.00;;
72899;SDS011;61043;52.036;5.566;2022-08-01T06:07:43;4.72;;;2.55;;
72899;SDS011;61043;52.036;5.566;2022-08-01T06:10:10;4.18;;;2.67;;
72899;SDS011;61043;52.036;5.566;2022-08-01T06:12:37;4.93;;;2.30;;
72899;SDS011;61043;52.036;5.566;2022-08-01T06:15:04;3.92;;;2.40;;
72899;SDS011;61043;52.036;5.566;2022-08-01T06:17:31;3.95;;;2.40;;
72899;SDS011;61043;52.036;5.566;2022-08-01T06:19:58;3.38;;;1.92;;
72899;SDS011;61043;52.036;5.566;2022-08-01T06:22:26;4.50;;;2.30;;
72899;SDS011;61043;52.036;5.566;2022-08-01T06:24:53;4.75;;;2.28;;
72899;SDS011;61043;52.036;5.566;2022-08-01T06:27:19;3.88;;;2.50;;
72899;SDS011;61043;52.036;5.566;2022-08-01T06:29:47;3.53;;;2.40;;
72899;SDS011;61043;52.036;5.566;2022-08-01T06:32:22;4.15;;;2.58;;
72899;SDS011;61043;52.036;5.566;2022-08-01T06:34:52;4.10;;;2.78;;
72899;SDS011;61043;52.036;5.566;2022-08-01T06:37:20;4.20;;;2.55;;
72899;SDS011;61043;52.036;5.566;2022-08-01T06:39:47;5.13;;;3.53;;
72899;SDS011;61043;52.036;5.566;2022-08-01T06:42:16;4.90;;;3.65;;
72899;SDS011;61043;52.036;5.566;2022-08-01T06:44:42;6.97;;;4.90;;
72899;SDS011;61043;52.036;5.566;2022-08-01T06:47:09;5.45;;;3.90;;
72899;SDS011;61043;52.036;5.566;2022-08-01T06:49:36;5.40;;;3.78;;
72899;SDS011;61043;52.036;5.566;2022-08-01T06:52:03;7.03;;;4.68;;
72899;SDS011;61043;52.036;5.566;2022-08-01T06:54:30;5.35;;;3.55;;
72899;SDS011;61043;52.036;5.566;2022-08-01T06:56:57;6.43;;;3.33;;
72899;SDS011;61043;52.036;5.566;2022-08-01T06:59:24;5.60;;;3.28;;
72899;SDS011;61043;52.036;5.566;2022-08-01T07:01:51;6.70;;;4.00;;
72899;SDS011;61043;52.036;5.566;2022-08-01T07:04:17;5.07;;;3.72;;
72899;SDS011;61043;52.036;5.566;2022-08-01T07:06:44;11.05;;;7.20;;
72899;SDS011;61043;52.036;5.566;2022-08-01T07:09:10;5.80;;;3.90;;
72899;SDS011;61043;52.036;5.566;2022-08-01T07:11:40;5.97;;;3.70;;
72899;SDS011;61043;52.036;5.566;2022-08-01T07:14:07;5.22;;;3.83;;
72899;SDS011;61043;52.036;5.566;2022-08-01T07:16:34;6.38;;;3.85;;
72899;SDS011;61043;52.036;5.566;2022-08-01T07:19:00;8.07;;;3.85;;
72899;SDS011;61043;52.036;5.566;2022-08-01T07:21:27;5.28;;;3.60;;
72899;SDS011;61043;52.036;5.566;2022-08-01T07:24:07;5.60;;;4.05;;
72899;SDS011;61043;52.036;5.566;2022-08-01T07:26:39;4.80;;;3.63;;
72899;SDS011;61043;52.036;5.566;2022-08-01T07:29:17;5.45;;;4.18;;
72899;SDS011;61043;52.036;5.566;2022-08-01T07:31:44;4.38;;;3.70;;
72899;SDS011;61043;52.036;5.566;2022-08-01T07:34:11;5.28;;;4.00;;
72899;SDS011;61043;52.036;5.566;2022-08-01T07:36:37;4.90;;;3.72;;
72899;SDS011;61043;52.036;5.566;2022-08-01T07:39:04;6.63;;;3.85;;
72899;SDS011;61043;52.036;5.566;2022-08-01T07:41:30;4.70;;;3.50;;
72899;SDS011;61043;52.036;5.566;2022-08-01T07:44:17;5.10;;;3.65;;
72899;SDS011;61043;52.036;5.566;2022-08-01T07:46:44;5.68;;;3.75;;
72899;SDS011;61043;52.036;5.566;2022-08-01T07:49:10;5.50;;;3.72;;
72899;SDS011;61043;52.036;5.566;2022-08-01T07:51:37;5.57;;;4.10;;
72899;SDS011;61043;52.036;5.566;2022-08-01T07:54:04;5.03;;;3.00;;
72899;SDS011;61043;52.036;5.566;2022-08-01T07:56:33;6.07;;;3.70;;
72899;SDS011;61043;52.036;5.566;2022-08-01T07:58:59;6.20;;;3.80;;
72899;SDS011;61043;52.036;5.566;2022-08-01T08:01:26;5.25;;;3.58;;
72899;SDS011;61043;52.036;5.566;2022-08-01T08:03:53;6.53;;;4.07;;
72899;SDS011;61043;52.036;5.566;2022-08-01T08:06:20;9.38;;;3.92;;
72899;SDS011;61043;52.036;5.566;2022-08-01T08:08:47;5.43;;;3.63;;
72899;SDS011;61043;52.036;5.566;2022-08-01T08:11:14;6.43;;;3.58;;
72899;SDS011;61043;52.036;5.566;2022-08-01T08:13:40;4.47;;;3.50;;
72899;SDS011;61043;52.036;5.566;2022-08-01T08:16:07;5.82;;;3.90;;
72899;SDS011;61043;52.036;5.566;2022-08-01T08:18:34;5.35;;;3.60;;
72899;SDS011;61043;52.036;5.566;2022-08-01T08:21:00;5.57;;;3.97;;
72899;SDS011;61043;52.036;5.566;2022-08-01T08:23:31;6.03;;;3.75;;
72899;SDS011;61043;52.036;5.566;2022-08-01T08:26:17;4.82;;;2.97;;
72899;SDS011;61043;52.036;5.566;2022-08-01T08:28:43;4.03;;;2.90;;
72899;SDS011;61043;52.036;5.566;2022-08-01T08:31:10;5.65;;;3.10;;
72899;SDS011;61043;52.036;5.566;2022-08-01T08:33:56;6.53;;;3.40;;
72899;SDS011;61043;52.036;5.566;2022-08-01T08:36:23;6.18;;;3.83;;
72899;SDS011;61043;52.036;5.566;2022-08-01T08:38:57;8.00;;;4.63;;
72899;SDS011;61043;52.036;5.566;2022-08-01T08:41:34;8.43;;;4.30;;
72899;SDS011;61043;52.036;5.566;2022-08-01T08:44:06;7.55;;;4.22;;
72899;SDS011;61043;52.036;5.566;2022-08-01T08:46:41;8.35;;;3.95;;
72899;SDS011;61043;52.036;5.566;2022-08-01T08:49:10;6.47;;;3.83;;
72899;SDS011;61043;52.036;5.566;2022-08-01T08:51:39;8.88;;;4.75;;
72899;SDS011;61043;52.036;5.566;2022-08-01T08:54:08;7.40;;;4.38;;
72899;SDS011;61043;52.036;5.566;2022-08-01T08:56:37;10.75;;;5.30;;
72899;SDS011;61043;52.036;5.566;2022-08-01T08:59:04;8.07;;;4.57;;
72899;SDS011;61043;52.036;5.566;2022-08-01T09:01:31;11.50;;;4.97;;
72899;SDS011;61043;52.036;5.566;2022-08-01T09:03:59;9.15;;;5.30;;
72899;SDS011;61043;52.036;5.566;2022-08-01T09:06:26;10.10;;;4.90;;
72899;SDS011;61043;52.036;5.566;2022-08-01T09:08:54;12.13;;;4.65;;
72899;SDS011;61043;52.036;5.566;2022-08-01T09:11:20;11.40;;;3.95;;
72899;SDS011;61043;52.036;5.566;2022-08-01T09:14:10;9.82;;;4.63;;
72899;SDS011;61043;52.036;5.566;2022-08-01T09:16:43;11.55;;;5.00;;
72899;SDS011;61043;52.036;5.566;2022-08-01T09:19:15;9.48;;;4.68;;
72899;SDS011;61043;52.036;5.566;2022-08-01T09:22:07;8.80;;;3.95;;
72899;SDS011;61043;52.036;5.566;2022-08-01T09:24:36;12.00;;;5.32;;
72899;SDS011;61043;52.036;5.566;2022-08-01T09:27:15;13.20;;;5.30;;
72899;SDS011;61043;52.036;5.566;2022-08-01T09:29:47;12.75;;;4.47;;
72899;SDS011;61043;52.036;5.566;2022-08-01T09:32:26;13.55;;;5.97;;
72899;SDS011;61043;52.036;5.566;2022-08-01T09:40:55;13.65;;;4.93;;
72899;SDS011;61043;52.036;5.566;2022-08-01T09:43:24;14.13;;;5.53;;
72899;SDS011;61043;52.036;5.566;2022-08-01T09:45:57;13.75;;;5.22;;
72899;SDS011;61043;52.036;5.566;2022-08-01T09:48:24;14.43;;;4.15;;
72899;SDS011;61043;52.036;5.566;2022-08-01T09:53:43;10.10;;;3.85;;
72899;SDS011;61043;52.036;5.566;2022-08-01T09:56:18;9.43;;;4.22;;
72899;SDS011;61043;52.036;5.566;2022-08-01T09:58:52;11.35;;;4.07;;
72899;SDS011;61043;52.036;5.566;2022-08-01T10:01:26;10.18;;;4.05;;
72899;SDS011;61043;52.036;5.566;2022-08-01T10:04:06;8.77;;;4.05;;
72899;SDS011;61043;52.036;5.566;2022-08-01T10:06:36;10.55;;;4.00;;
72899;SDS011;61043;52.036;5.566;2022-08-01T10:09:03;9.35;;;3.72;;
72899;SDS011;61043;52.036;5.566;2022-08-01T10:11:30;9.57;;;4.65;;
72899;SDS011;61043;52.036;5.566;2022-08-01T10:14:01;11.63;;;4.07;;
72899;SDS011;61043;52.036;5.566;2022-08-01T10:16:28;9.43;;;3.67;;
72899;SDS011;61043;52.036;5.566;2022-08-01T10:18:56;10.40;;;3.92;;
72899;SDS011;61043;52.036;5.566;2022-08-01T10:21:25;8.45;;;3.50;;
72899;SDS011;61043;52.036;5.566;2022-08-01T10:24:13;9.32;;;3.60;;
72899;SDS011;61043;52.036;5.566;2022-08-01T10:26:44;10.00;;;3.75;;
72899;SDS011;61043;52.036;5.566;2022-08-01T10:29:17;11.15;;;3.88;;
72899;SDS011;61043;52.036;5.566;2022-08-01T10:32:06;8.63;;;3.75;;
72899;SDS011;61043;52.036;5.566;2022-08-01T10:34:36;10.32;;;3.15;;
72899;SDS011;61043;52.036;5.566;2022-08-01T10:37:05;9.15;;;2.88;;
72899;SDS011;61043;52.036;5.566;2022-08-01T10:39:34;8.95;;;3.58;;
72899;SDS011;61043;52.036;5.566;2022-08-01T10:42:01;7.45;;;3.13;;
72899;SDS011;61043;52.036;5.566;2022-08-01T10:44:34;8.98;;;3.42;;
72899;SDS011;61043;52.036;5.566;2022-08-01T10:47:04;10.03;;;3.37;;
72899;SDS011;61043;52.036;5.566;2022-08-01T10:49:36;8.13;;;2.72;;
72899;SDS011;61043;52.036;5.566;2022-08-01T10:52:16;7.85;;;3.33;;
72899;SDS011;61043;52.036;5.566;2022-08-01T10:54:44;8.25;;;2.97;;
72899;SDS011;61043;52.036;5.566;2022-08-01T10:57:18;7.30;;;2.78;;
72899;SDS011;61043;52.036;5.566;2022-08-01T10:59:49;10.02;;;2.67;;
72899;SDS011;61043;52.036;5.566;2022-08-01T11:02:27;7.07;;;3.10;;
72899;SDS011;61043;52.036;5.566;2022-08-01T11:04:58;10.40;;;3.00;;
72899;SDS011;61043;52.036;5.566;2022-08-01T11:07:42;7.90;;;3.25;;
72899;SDS011;61043;52.036;5.566;2022-08-01T11:12:48;8.13;;;3.65;;
72899;SDS011;61043;52.036;5.566;2022-08-01T11:15:16;10.18;;;3.20;;
72899;SDS011;61043;52.036;5.566;2022-08-01T11:17:55;10.85;;;3.53;;
72899;SDS011;61043;52.036;5.566;2022-08-01T11:28:24;9.32;;;2.72;;
72899;SDS011;61043;52.036;5.566;2022-08-01T11:41:39;4.88;;;2.40;;
72899;SDS011;61043;52.036;5.566;2022-08-01T11:44:07;8.52;;;2.70;;
72899;SDS011;61043;52.036;5.566;2022-08-01T11:52:24;7.10;;;2.60;;
72899;SDS011;61043;52.036;5.566;2022-08-01T11:57:30;5.80;;;2.40;;
72899;SDS011;61043;52.036;5.566;2022-08-01T12:00:02;6.50;;;2.53;;
72899;SDS011;61043;52.036;5.566;2022-08-01T12:02:41;8.48;;;2.80;;
72899;SDS011;61043;52.036;5.566;2022-08-01T12:05:11;9.95;;;3.10;;
72899;SDS011;61043;52.036;5.566;2022-08-01T12:07:41;8.90;;;2.78;;
72899;SDS011;61043;52.036;5.566;2022-08-01T12:10:10;7.10;;;2.80;;
72899;SDS011;61043;52.036;5.566;2022-08-01T12:12:59;8.20;;;3.13;;
72899;SDS011;61043;52.036;5.566;2022-08-01T12:15:32;7.85;;;2.65;;
72899;SDS011;61043;52.036;5.566;2022-08-01T12:18:01;13.70;;;2.92;;
72899;SDS011;61043;52.036;5.566;2022-08-01T12:20:32;7.78;;;2.92;;
72899;SDS011;61043;52.036;5.566;2022-08-01T12:23:01;7.87;;;2.50;;
72899;SDS011;61043;52.036;5.566;2022-08-01T12:25:29;7.05;;;2.45;;
72899;SDS011;61043;52.036;5.566;2022-08-01T12:28:03;11.15;;;2.80;;
72899;SDS011;61043;52.036;5.566;2022-08-01T12:30:38;8.50;;;2.92;;
72899;SDS011;61043;52.036;5.566;2022-08-01T12:33:06;10.32;;;2.92;;
72899;SDS011;61043;52.036;5.566;2022-08-01T12:35:34;7.30;;;2.45;;
72899;SDS011;61043;52.036;5.566;2022-08-01T12:38:45;8.00;;;2.75;;
72899;SDS011;61043;52.036;5.566;2022-08-01T12:40:54;8.25;;;2.60;;
72899;SDS011;61043;52.036;5.566;2022-08-01T12:43:22;8.43;;;2.67;;
72899;SDS011;61043;52.036;5.566;2022-08-01T12:45:55;5.15;;;1.95;;
72899;SDS011;61043;52.036;5.566;2022-08-01T12:48:25;5.60;;;2.25;;
72899;SDS011;61043;52.036;5.566;2022-08-01T12:50:52;6.85;;;2.80;;
72899;SDS011;61043;52.036;5.566;2022-08-01T12:53:26;6.30;;;2.55;;
72899;SDS011;61043;52.036;5.566;2022-08-01T12:56:06;7.13;;;2.50;;
72899;SDS011;61043;52.036;5.566;2022-08-01T12:58:33;5.63;;;1.83;;
72899;SDS011;61043;52.036;5.566;2022-08-01T13:01:24;5.35;;;1.83;;
72899;SDS011;61043;52.036;5.566;2022-08-01T13:04:02;5.80;;;2.08;;
72899;SDS011;61043;52.036;5.566;2022-08-01T13:06:34;7.18;;;2.08;;
72899;SDS011;61043;52.036;5.566;2022-08-01T13:09:09;4.10;;;1.95;;
72899;SDS011;61043;52.036;5.566;2022-08-01T13:11:37;4.65;;;1.70;;
72899;SDS011;61043;52.036;5.566;2022-08-01T13:14:27;3.58;;;1.63;;
72899;SDS011;61043;52.036;5.566;2022-08-01T13:16:55;5.10;;;1.75;;
72899;SDS011;61043;52.036;5.566;2022-08-01T13:19:40;4.18;;;1.63;;
72899;SDS011;61043;52.036;5.566;2022-08-01T13:22:08;5.28;;;1.85;;
72899;SDS011;61043;52.036;5.566;2022-08-01T13:24:35;4.20;;;1.90;;
72899;SDS011;61043;52.036;5.566;2022-08-01T13:27:03;5.88;;;1.85;;
72899;SDS011;61043;52.036;5.566;2022-08-01T13:29:37;6.38;;;2.00;;
72899;SDS011;61043;52.036;5.566;2022-08-01T13:32:15;5.43;;;1.80;;
72899;SDS011;61043;52.036;5.566;2022-08-01T13:35:08;4.38;;;1.50;;
72899;SDS011;61043;52.036;5.566;2022-08-01T13:37:38;3.30;;;1.70;;
72899;SDS011;61043;52.036;5.566;2022-08-01T13:40:07;4.10;;;1.40;;
72899;SDS011;61043;52.036;5.566;2022-08-01T13:42:34;3.83;;;1.83;;
72899;SDS011;61043;52.036;5.566;2022-08-01T13:45:02;3.65;;;1.60;;
72899;SDS011;61043;52.036;5.566;2022-08-01T13:47:40;2.97;;;1.67;;
72899;SDS011;61043;52.036;5.566;2022-08-01T13:50:27;4.55;;;1.85;;
72899;SDS011;61043;52.036;5.566;2022-08-01T13:52:54;4.40;;;2.13;;
72899;SDS011;61043;52.036;5.566;2022-08-01T13:55:21;3.92;;;1.60;;
72899;SDS011;61043;52.036;5.566;2022-08-01T13:57:47;4.07;;;1.73;;
72899;SDS011;61043;52.036;5.566;2022-08-01T14:00:14;5.70;;;2.08;;
72899;SDS011;61043;52.036;5.566;2022-08-01T14:02:41;4.63;;;1.80;;
72899;SDS011;61043;52.036;5.566;2022-08-01T14:05:08;4.00;;;1.60;;
72899;SDS011;61043;52.036;5.566;2022-08-01T14:07:36;6.40;;;1.70;;
72899;SDS011;61043;52.036;5.566;2022-08-01T14:10:13;4.70;;;1.60;;
72899;SDS011;61043;52.036;5.566;2022-08-01T14:12:45;4.43;;;1.77;;
72899;SDS011;61043;52.036;5.566;2022-08-01T14:15:13;5.60;;;2.00;;
72899;SDS011;61043;52.036;5.566;2022-08-01T14:18:00;4.00;;;1.85;;
72899;SDS011;61043;52.036;5.566;2022-08-01T14:20:27;4.30;;;1.60;;
72899;SDS011;61043;52.036;5.566;2022-08-01T14:22:54;2.97;;;1.60;;
72899;SDS011;61043;52.036;5.566;2022-08-01T14:25:20;4.80;;;1.80;;
72899;SDS011;61043;52.036;5.566;2022-08-01T14:28:07;4.38;;;1.80;;
72899;SDS011;61043;52.036;5.566;2022-08-01T14:30:34;4.57;;;1.75;;
72899;SDS011;61043;52.036;5.566;2022-08-01T14:33:00;4.40;;;2.13;;
72899;SDS011;61043;52.036;5.566;2022-08-01T14:35:27;4.72;;;1.80;;
72899;SDS011;61043;52.036;5.566;2022-08-01T14:38:13;6.53;;;1.77;;
72899;SDS011;61043;52.036;5.566;2022-08-01T14:40:56;4.25;;;1.70;;
72899;SDS011;61043;52.036;5.566;2022-08-01T14:43:23;3.88;;;1.60;;
72899;SDS011;61043;52.036;5.566;2022-08-01T14:45:58;5.68;;;1.70;;
72899;SDS011;61043;52.036;5.566;2022-08-01T14:48:25;4.95;;;1.67;;
72899;SDS011;61043;52.036;5.566;2022-08-01T14:50:51;6.05;;;1.70;;
72899;SDS011;61043;52.036;5.566;2022-08-01T14:53:18;2.80;;;1.40;;
72899;SDS011;61043;52.036;5.566;2022-08-01T14:55:45;4.00;;;1.45;;
72899;SDS011;61043;52.036;5.566;2022-08-01T14:58:11;3.58;;;1.45;;
72899;SDS011;61043;52.036;5.566;2022-08-01T15:00:38;4.40;;;1.70;;
72899;SDS011;61043;52.036;5.566;2022-08-01T15:03:05;1.70;;;1.10;;
72899;SDS011;61043;52.036;5.566;2022-08-01T15:05:31;3.88;;;1.58;;
72899;SDS011;61043;52.036;5.566;2022-08-01T15:07:58;3.67;;;1.60;;
72899;SDS011;61043;52.036;5.566;2022-08-01T15:10:25;3.22;;;1.63;;
72899;SDS011;61043;52.036;5.566;2022-08-01T15:12:52;2.97;;;1.08;;
72899;SDS011;61043;52.036;5.566;2022-08-01T15:15:18;4.97;;;1.40;;
72899;SDS011;61043;52.036;5.566;2022-08-01T15:17:45;3.38;;;1.30;;
72899;SDS011;61043;52.036;5.566;2022-08-01T15:20:12;4.30;;;1.38;;
72899;SDS011;61043;52.036;5.566;2022-08-01T15:22:38;2.47;;;1.20;;
72899;SDS011;61043;52.036;5.566;2022-08-01T15:25:05;3.80;;;1.48;;
72899;SDS011;61043;52.036;5.566;2022-08-01T15:27:33;2.97;;;1.13;;
72899;SDS011;61043;52.036;5.566;2022-08-01T15:29:59;3.42;;;1.45;;
72899;SDS011;61043;52.036;5.566;2022-08-01T15:32:26;5.05;;;1.50;;
72899;SDS011;61043;52.036;5.566;2022-08-01T15:34:52;3.05;;;1.60;;
72899;SDS011;61043;52.036;5.566;2022-08-01T15:37:20;2.38;;;1.33;;
72899;SDS011;61043;52.036;5.566;2022-08-01T15:39:47;3.65;;;1.52;;
72899;SDS011;61043;52.036;5.566;2022-08-01T15:42:15;3.22;;;1.02;;
72899;SDS011;61043;52.036;5.566;2022-08-01T15:44:50;4.32;;;1.75;;
72899;SDS011;61043;52.036;5.566;2022-08-01T15:47:17;1.77;;;1.10;;
72899;SDS011;61043;52.036;5.566;2022-08-01T15:49:43;4.00;;;1.23;;
72899;SDS011;61043;52.036;5.566;2022-08-01T15:52:17;3.60;;;1.40;;
72899;SDS011;61043;52.036;5.566;2022-08-01T15:54:47;4.65;;;1.25;;
72899;SDS011;61043;52.036;5.566;2022-08-01T15:57:14;4.28;;;1.40;;